sensor_id;sensor_type;location;lat;lon;timestamp;pressure;altitude;pressure_sealevel;temperature;humidity
9415;BME280;4746;35.664;139.738;2023-08-06T00:00:45;99264.88;;;36.87;46.95
9415;BME280;4746;35.664;139.738;2023-08-06T00:03:12;99262.00;;;36.88;46.85
9415;BME280;4746;35.664;139.738;2023-08-06T00:05:43;99263.78;;;36.96;46.63
9415;BME280;4746;35.664;139.738;2023-08-06T00:08:10;99275.16;;;36.98;45.49
9415;BME280;4746;35.664;139.738;2023-08-06T00:10:39;99263.97;;;36.94;45.49
9415;BME280;4746;35.664;139.738;2023-08-06T00:13:09;99270.66;;;36.90;45.63
9415;BME280;4746;35.664;139.738;2023-08-06T00:15:36;99276.19;;;36.89;45.60
9415;BME280;4746;35.664;139.738;2023-08-06T00:18:04;99275.66;;;36.93;45.65
9415;BME280;4746;35.664;139.738;2023-08-06T00:20:31;99274.13;;;36.99;45.49
9415;BME280;4746;35.664;139.738;2023-08-06T00:22:59;99282.56;;;37.10;45.14
9415;BME280;4746;35.664;139.738;2023-08-06T00:25:26;99283.84;;;37.14;44.94
9415;BME280;4746;35.664;139.738;2023-08-06T00:27:57;99290.03;;;37.15;45.39
9415;BME280;4746;35.664;139.738;2023-08-06T00:30:24;99286.38;;;37.16;45.24
9415;BME280;4746;35.664;139.738;2023-08-06T00:32:52;99280.66;;;37.19;45.21
9415;BME280;4746;35.664;139.738;2023-08-06T00:35:19;99277.78;;;37.20;45.76
9415;BME280;4746;35.664;139.738;2023-08-06T00:37:47;99288.97;;;37.24;45.84
9415;BME280;4746;35.664;139.738;2023-08-06T00:40:16;99288.28;;;37.30;45.44
9415;BME280;4746;35.664;139.738;2023-08-06T00:42:43;99280.84;;;37.40;45.86
9415;BME280;4746;35.664;139.738;2023-08-06T00:45:11;99275.22;;;37.49;45.57
9415;BME280;4746;35.664;139.738;2023-08-06T00:47:39;99276.34;;;37.54;45.20
9415;BME280;4746;35.664;139.738;2023-08-06T00:50:08;99285.50;;;37.60;44.95
9415;BME280;4746;35.664;139.738;2023-08-06T00:52:37;99289.09;;;37.67;45.18
9415;BME280;4746;35.664;139.738;2023-08-06T00:55:06;99286.88;;;37.70;45.16
9415;BME280;4746;35.664;139.738;2023-08-06T00:57:34;99287.28;;;37.67;45.45
9415;BME280;4746;35.664;139.738;2023-08-06T01:00:04;99283.59;;;37.68;45.09
9415;BME280;4746;35.664;139.738;2023-08-06T01:02:31;99282.38;;;37.71;44.68
9415;BME280;4746;35.664;139.738;2023-08-06T01:05:00;99281.69;;;37.77;44.39
9415;BME280;4746;35.664;139.738;2023-08-06T01:07:55;99287.69;;;37.93;44.39
9415;BME280;4746;35.664;139.738;2023-08-06T01:13:47;99287.50;;;37.80;44.80
9415;BME280;4746;35.664;139.738;2023-08-06T01:16:19;99273.88;;;37.67;44.83
9415;BME280;4746;35.664;139.738;2023-08-06T01:18:51;99275.09;;;37.65;44.72
9415;BME280;4746;35.664;139.738;2023-08-06T01:21:19;99273.97;;;37.59;44.63
9415;BME280;4746;35.664;139.738;2023-08-06T01:23:49;99266.31;;;37.56;44.96
9415;BME280;4746;35.664;139.738;2023-08-06T01:26:42;99269.28;;;37.61;44.76
9415;BME280;4746;35.664;139.738;2023-08-06T01:29:48;99275.88;;;37.51;44.99
9415;BME280;4746;35.664;139.738;2023-08-06T01:32:21;99276.13;;;37.42;44.51
9415;BME280;4746;35.664;139.738;2023-08-06T01:34:50;99276.13;;;37.42;44.28
9415;BME280;4746;35.664;139.738;2023-08-06T01:37:19;99280.22;;;37.52;44.35
9415;BME280;4746;35.664;139.738;2023-08-06T01:39:47;99272.22;;;37.66;43.79
9415;BME280;4746;35.664;139.738;2023-08-06T01:42:16;99278.25;;;37.68;43.60
9415;BME280;4746;35.664;139.738;2023-08-06T01:44:44;99270.13;;;37.76;43.67
9415;BME280;4746;35.664;139.738;2023-08-06T01:47:41;99267.59;;;37.97;42.96
9415;BME280;4746;35.664;139.738;2023-08-06T01:50:11;99261.22;;;37.98;42.67
9415;BME280;4746;35.664;139.738;2023-08-06T01:52:42;99255.75;;;38.06;42.62
9415;BME280;4746;35.664;139.738;2023-08-06T01:55:09;99253.72;;;38.08;41.64
9415;BME280;4746;35.664;139.738;2023-08-06T01:57:37;99259.09;;;38.08;41.91
9415;BME280;4746;35.664;139.738;2023-08-06T02:00:05;99248.25;;;38.02;42.16
9415;BME280;4746;35.664;139.738;2023-08-06T02:02:33;99244.13;;;37.99;42.54
9415;BME280;4746;35.664;139.738;2023-08-06T02:05:01;99243.31;;;37.99;42.78
9415;BME280;4746;35.664;139.738;2023-08-06T02:07:28;99240.16;;;37.95;42.72
9415;BME280;4746;35.664;139.738;2023-08-06T02:09:56;99247.09;;;38.04;42.34
9415;BME280;4746;35.664;139.738;2023-08-06T02:12:23;99228.38;;;38.19;42.24
9415;BME280;4746;35.664;139.738;2023-08-06T02:14:51;99227.69;;;38.31;42.71
9415;BME280;4746;35.664;139.738;2023-08-06T02:17:18;99228.22;;;38.41;42.53
9415;BME280;4746;35.664;139.738;2023-08-06T02:19:46;99222.19;;;38.53;42.37
9415;BME280;4746;35.664;139.738;2023-08-06T02:22:13;99223.75;;;38.62;42.68
9415;BME280;4746;35.664;139.738;2023-08-06T02:24:41;99214.75;;;38.70;42.55
9415;BME280;4746;35.664;139.738;2023-08-06T02:27:08;99214.63;;;38.78;41.72
9415;BME280;4746;35.664;139.738;2023-08-06T02:29:36;99223.38;;;38.86;41.58
9415;BME280;4746;35.664;139.738;2023-08-06T02:32:04;99209.84;;;38.94;41.47
9415;BME280;4746;35.664;139.738;2023-08-06T02:34:32;99201.94;;;39.07;41.16
9415;BME280;4746;35.664;139.738;2023-08-06T02:37:02;99198.94;;;39.16;41.28
9415;BME280;4746;35.664;139.738;2023-08-06T02:39:29;99194.44;;;39.23;40.91
9415;BME280;4746;35.664;139.738;2023-08-06T02:41:57;99197.63;;;39.33;40.95
9415;BME280;4746;35.664;139.738;2023-08-06T02:44:27;99186.00;;;39.47;40.52
9415;BME280;4746;35.664;139.738;2023-08-06T02:46:55;99181.88;;;39.51;40.52
9415;BME280;4746;35.664;139.738;2023-08-06T02:49:23;99181.97;;;39.64;39.88
9415;BME280;4746;35.664;139.738;2023-08-06T02:51:51;99180.81;;;39.79;39.45
9415;BME280;4746;35.664;139.738;2023-08-06T02:54:19;99173.69;;;39.93;39.57
9415;BME280;4746;35.664;139.738;2023-08-06T02:56:50;99177.69;;;40.10;39.43
9415;BME280;4746;35.664;139.738;2023-08-06T02:59:18;99178.09;;;40.13;39.21
9415;BME280;4746;35.664;139.738;2023-08-06T03:01:45;99174.38;;;40.08;39.24
9415;BME280;4746;35.664;139.738;2023-08-06T03:04:13;99166.94;;;40.10;39.44
9415;BME280;4746;35.664;139.738;2023-08-06T03:06:40;99174.19;;;40.16;39.15
9415;BME280;4746;35.664;139.738;2023-08-06T03:09:08;99170.69;;;40.15;38.74
9415;BME280;4746;35.664;139.738;2023-08-06T03:11:35;99169.84;;;40.08;39.06
9415;BME280;4746;35.664;139.738;2023-08-06T03:14:03;99161.75;;;40.02;38.54
9415;BME280;4746;35.664;139.738;2023-08-06T03:16:30;99154.41;;;39.83;39.03
9415;BME280;4746;35.664;139.738;2023-08-06T03:18:58;99154.34;;;39.70;39.28
9415;BME280;4746;35.664;139.738;2023-08-06T03:21:26;99159.03;;;39.55;39.68
9415;BME280;4746;35.664;139.738;2023-08-06T03:23:53;99163.53;;;39.27;40.44
9415;BME280;4746;35.664;139.738;2023-08-06T03:26:21;99164.84;;;39.10;41.23
9415;BME280;4746;35.664;139.738;2023-08-06T03:28:48;99164.59;;;39.05;41.73
9415;BME280;4746;35.664;139.738;2023-08-06T03:31:16;99166.03;;;39.02;41.74
9415;BME280;4746;35.664;139.738;2023-08-06T03:33:43;99166.28;;;39.06;40.15
9415;BME280;4746;35.664;139.738;2023-08-06T03:36:11;99169.84;;;39.13;39.27
9415;BME280;4746;35.664;139.738;2023-08-06T03:38:38;99171.56;;;39.27;38.83
9415;BME280;4746;35.664;139.738;2023-08-06T03:41:06;99161.56;;;39.36;38.83
9415;BME280;4746;35.664;139.738;2023-08-06T03:43:33;99166.19;;;39.48;38.93
9415;BME280;4746;35.664;139.738;2023-08-06T03:46:01;99146.84;;;39.59;38.51
9415;BME280;4746;35.664;139.738;2023-08-06T03:48:28;99155.13;;;39.64;38.79
9415;BME280;4746;35.664;139.738;2023-08-06T03:50:58;99147.59;;;39.80;39.20
9415;BME280;4746;35.664;139.738;2023-08-06T03:53:29;99147.78;;;39.79;39.71
9415;BME280;4746;35.664;139.738;2023-08-06T03:55:57;99144.38;;;39.58;40.01
9415;BME280;4746;35.664;139.738;2023-08-06T03:58:27;99133.09;;;39.41;40.14
9415;BME280;4746;35.664;139.738;2023-08-06T04:01:04;99155.91;;;39.31;40.72
9415;BME280;4746;35.664;139.738;2023-08-06T04:03:31;99133.97;;;39.14;39.81
9415;BME280;4746;35.664;139.738;2023-08-06T04:05:59;99139.09;;;39.09;39.90
9415;BME280;4746;35.664;139.738;2023-08-06T04:08:27;99126.16;;;39.19;39.23
9415;BME280;4746;35.664;139.738;2023-08-06T04:10:55;99126.19;;;39.53;39.07
9415;BME280;4746;35.664;139.738;2023-08-06T04:13:22;99127.56;;;39.76;38.30
9415;BME280;4746;35.664;139.738;2023-08-06T04:15:50;99129.22;;;39.84;38.18
9415;BME280;4746;35.664;139.738;2023-08-06T04:18:18;99113.22;;;39.97;38.43
9415;BME280;4746;35.664;139.738;2023-08-06T04:20:48;99126.66;;;40.10;38.29
9415;BME280;4746;35.664;139.738;2023-08-06T04:23:16;99124.34;;;40.00;38.39
9415;BME280;4746;35.664;139.738;2023-08-06T04:25:44;99129.28;;;39.90;38.72
9415;BME280;4746;35.664;139.738;2023-08-06T04:28:11;99125.47;;;39.72;39.21
9415;BME280;4746;35.664;139.738;2023-08-06T04:30:39;99129.53;;;39.68;39.23
9415;BME280;4746;35.664;139.738;2023-08-06T04:33:06;99115.53;;;39.72;39.31
9415;BME280;4746;35.664;139.738;2023-08-06T04:35:34;99120.94;;;39.79;39.81
9415;BME280;4746;35.664;139.738;2023-08-06T04:38:01;99116.19;;;39.81;39.12
9415;BME280;4746;35.664;139.738;2023-08-06T04:40:29;99102.72;;;39.68;39.37
9415;BME280;4746;35.664;139.738;2023-08-06T04:42:56;99103.47;;;39.49;40.14
9415;BME280;4746;35.664;139.738;2023-08-06T04:45:24;99096.13;;;39.37;40.69
9415;BME280;4746;35.664;139.738;2023-08-06T04:47:53;99114.44;;;39.54;40.46
9415;BME280;4746;35.664;139.738;2023-08-06T04:50:21;99114.28;;;39.69;40.40
9415;BME280;4746;35.664;139.738;2023-08-06T04:52:48;99124.34;;;39.94;40.22
9415;BME280;4746;35.664;139.738;2023-08-06T04:55:16;99106.88;;;40.24;38.13
9415;BME280;4746;35.664;139.738;2023-08-06T04:57:45;99114.16;;;40.36;37.92
9415;BME280;4746;35.664;139.738;2023-08-06T05:00:15;99116.81;;;40.23;37.37
9415;BME280;4746;35.664;139.738;2023-08-06T05:02:42;99113.69;;;40.20;37.46
9415;BME280;4746;35.664;139.738;2023-08-06T05:05:10;99108.28;;;40.13;37.47
9415;BME280;4746;35.664;139.738;2023-08-06T05:07:37;99109.09;;;40.07;37.51
9415;BME280;4746;35.664;139.738;2023-08-06T05:10:05;99101.72;;;40.22;37.76
9415;BME280;4746;35.664;139.738;2023-08-06T05:12:33;99095.50;;;40.22;37.29
9415;BME280;4746;35.664;139.738;2023-08-06T05:15:01;99093.06;;;40.33;37.13
9415;BME280;4746;35.664;139.738;2023-08-06T05:17:28;99093.28;;;40.45;37.44
9415;BME280;4746;35.664;139.738;2023-08-06T05:19:56;99081.94;;;40.43;37.85
9415;BME280;4746;35.664;139.738;2023-08-06T05:22:25;99081.94;;;40.49;37.48
9415;BME280;4746;35.664;139.738;2023-08-06T05:24:53;99092.31;;;40.71;37.34
9415;BME280;4746;35.664;139.738;2023-08-06T05:27:20;99076.16;;;40.97;36.95
9415;BME280;4746;35.664;139.738;2023-08-06T05:29:49;99090.66;;;41.09;36.75
9415;BME280;4746;35.664;139.738;2023-08-06T05:32:16;99072.84;;;41.21;36.45
9415;BME280;4746;35.664;139.738;2023-08-06T05:34:44;99083.53;;;41.47;36.07
9415;BME280;4746;35.664;139.738;2023-08-06T05:37:11;99082.16;;;41.95;35.34
9415;BME280;4746;35.664;139.738;2023-08-06T05:39:39;99076.72;;;42.69;33.74
9415;BME280;4746;35.664;139.738;2023-08-06T05:42:06;99078.88;;;43.03;33.61
9415;BME280;4746;35.664;139.738;2023-08-06T05:44:35;99064.25;;;43.17;34.10
9415;BME280;4746;35.664;139.738;2023-08-06T05:47:03;99082.09;;;42.69;34.92
9415;BME280;4746;35.664;139.738;2023-08-06T05:49:31;99092.09;;;41.88;35.49
9415;BME280;4746;35.664;139.738;2023-08-06T05:51:58;99087.53;;;41.25;36.62
9415;BME280;4746;35.664;139.738;2023-08-06T05:54:26;99091.88;;;40.74;37.22
9415;BME280;4746;35.664;139.738;2023-08-06T05:56:54;99103.41;;;40.30;38.31
9415;BME280;4746;35.664;139.738;2023-08-06T05:59:21;99093.19;;;40.06;38.40
9415;BME280;4746;35.664;139.738;2023-08-06T06:01:49;99103.56;;;39.75;39.02
9415;BME280;4746;35.664;139.738;2023-08-06T06:04:16;99098.09;;;39.49;40.39
9415;BME280;4746;35.664;139.738;2023-08-06T06:06:44;99103.31;;;39.30;40.58
9415;BME280;4746;35.664;139.738;2023-08-06T06:09:11;99120.00;;;39.25;41.01
9415;BME280;4746;35.664;139.738;2023-08-06T06:11:39;99117.88;;;39.14;41.29
9415;BME280;4746;35.664;139.738;2023-08-06T06:14:06;99114.47;;;38.79;41.94
9415;BME280;4746;35.664;139.738;2023-08-06T06:16:35;99122.94;;;38.61;41.74
9415;BME280;4746;35.664;139.738;2023-08-06T06:19:02;99114.75;;;38.48;42.36
9415;BME280;4746;35.664;139.738;2023-08-06T06:21:30;99110.00;;;38.44;42.57
9415;BME280;4746;35.664;139.738;2023-08-06T06:23:57;99109.09;;;38.37;42.44
9415;BME280;4746;35.664;139.738;2023-08-06T06:26:25;99112.34;;;38.32;43.02
9415;BME280;4746;35.664;139.738;2023-08-06T06:28:52;99115.47;;;38.57;43.07
9415;BME280;4746;35.664;139.738;2023-08-06T06:31:20;99104.41;;;39.08;42.75
9415;BME280;4746;35.664;139.738;2023-08-06T06:33:47;99108.66;;;39.91;40.88
9415;BME280;4746;35.664;139.738;2023-08-06T06:36:15;99118.31;;;40.51;39.86
9415;BME280;4746;35.664;139.738;2023-08-06T06:38:42;99102.84;;;40.86;39.67
9415;BME280;4746;35.664;139.738;2023-08-06T06:41:10;99107.81;;;41.27;39.37
9415;BME280;4746;35.664;139.738;2023-08-06T06:43:37;99094.41;;;42.21;37.99
9415;BME280;4746;35.664;139.738;2023-08-06T06:46:06;99095.63;;;44.48;34.32
9415;BME280;4746;35.664;139.738;2023-08-06T06:48:34;99109.41;;;44.17;34.19
9415;BME280;4746;35.664;139.738;2023-08-06T06:51:02;99121.75;;;42.93;35.52
9415;BME280;4746;35.664;139.738;2023-08-06T06:53:29;99106.72;;;41.48;36.82
9415;BME280;4746;35.664;139.738;2023-08-06T06:56:04;99122.56;;;40.14;39.54
9415;BME280;4746;35.664;139.738;2023-08-06T06:58:34;99138.22;;;39.09;41.77
9415;BME280;4746;35.664;139.738;2023-08-06T07:01:02;99125.88;;;38.25;43.15
9415;BME280;4746;35.664;139.738;2023-08-06T07:03:29;99136.13;;;37.63;44.21
9415;BME280;4746;35.664;139.738;2023-08-06T07:06:00;99135.88;;;37.44;44.66
9415;BME280;4746;35.664;139.738;2023-08-06T07:08:30;99127.75;;;37.66;44.90
9415;BME280;4746;35.664;139.738;2023-08-06T07:11:03;99112.84;;;38.84;43.34
9415;BME280;4746;35.664;139.738;2023-08-06T07:13:37;99113.34;;;40.55;40.37
9415;BME280;4746;35.664;139.738;2023-08-06T07:16:05;99108.88;;;40.88;39.12
9415;BME280;4746;35.664;139.738;2023-08-06T07:18:33;99111.50;;;40.43;39.95
9415;BME280;4746;35.664;139.738;2023-08-06T07:21:01;99104.63;;;39.80;41.11
9415;BME280;4746;35.664;139.738;2023-08-06T07:23:28;99098.38;;;39.33;42.40
9415;BME280;4746;35.664;139.738;2023-08-06T07:25:56;99100.91;;;38.87;43.30
9415;BME280;4746;35.664;139.738;2023-08-06T07:28:25;99102.22;;;38.49;43.47
9415;BME280;4746;35.664;139.738;2023-08-06T07:30:52;99114.06;;;38.19;44.77
9415;BME280;4746;35.664;139.738;2023-08-06T07:33:21;99105.16;;;38.33;44.26
9415;BME280;4746;35.664;139.738;2023-08-06T07:35:48;99097.31;;;39.00;43.56
9415;BME280;4746;35.664;139.738;2023-08-06T07:38:16;99095.16;;;40.50;40.80
9415;BME280;4746;35.664;139.738;2023-08-06T07:40:44;99104.09;;;40.83;39.73
9415;BME280;4746;35.664;139.738;2023-08-06T07:43:12;99106.63;;;40.06;40.64
9415;BME280;4746;35.664;139.738;2023-08-06T07:45:39;99098.38;;;39.33;42.22
9415;BME280;4746;35.664;139.738;2023-08-06T07:48:07;99102.09;;;39.32;42.08
9415;BME280;4746;35.664;139.738;2023-08-06T07:50:36;99103.34;;;40.17;41.01
9415;BME280;4746;35.664;139.738;2023-08-06T07:53:04;99098.94;;;41.01;38.70
9415;BME280;4746;35.664;139.738;2023-08-06T07:55:31;99107.19;;;40.74;39.47
9415;BME280;4746;35.664;139.738;2023-08-06T07:57:59;99099.41;;;40.19;39.83
9415;BME280;4746;35.664;139.738;2023-08-06T08:00:27;99111.25;;;39.78;40.66
9415;BME280;4746;35.664;139.738;2023-08-06T08:02:54;99097.31;;;40.08;40.48
9415;BME280;4746;35.664;139.738;2023-08-06T08:05:22;99091.22;;;39.80;40.23
9415;BME280;4746;35.664;139.738;2023-08-06T08:07:49;99084.50;;;39.23;41.25
9415;BME280;4746;35.664;139.738;2023-08-06T08:10:17;99087.25;;;38.82;42.21
9415;BME280;4746;35.664;139.738;2023-08-06T08:12:46;99094.28;;;38.41;42.34
9415;BME280;4746;35.664;139.738;2023-08-06T08:15:14;99104.47;;;38.10;43.15
9415;BME280;4746;35.664;139.738;2023-08-06T08:17:42;99103.66;;;37.95;43.02
9415;BME280;4746;35.664;139.738;2023-08-06T08:20:10;99100.81;;;37.82;43.28
9415;BME280;4746;35.664;139.738;2023-08-06T08:22:37;99089.66;;;37.64;44.00
9415;BME280;4746;35.664;139.738;2023-08-06T08:25:05;99096.59;;;37.45;44.17
9415;BME280;4746;35.664;139.738;2023-08-06T08:27:33;99116.56;;;37.20;44.66
9415;BME280;4746;35.664;139.738;2023-08-06T08:30:00;99119.22;;;36.91;45.38
9415;BME280;4746;35.664;139.738;2023-08-06T08:32:28;99119.00;;;36.70;45.76
9415;BME280;4746;35.664;139.738;2023-08-06T08:34:55;99104.97;;;36.54;45.94
9415;BME280;4746;35.664;139.738;2023-08-06T08:37:24;99105.22;;;36.44;46.07
9415;BME280;4746;35.664;139.738;2023-08-06T08:39:53;99113.91;;;36.83;45.83
9415;BME280;4746;35.664;139.738;2023-08-06T08:42:23;99115.34;;;38.09;44.58
9415;BME280;4746;35.664;139.738;2023-08-06T08:44:52;99114.50;;;38.43;43.45
9415;BME280;4746;35.664;139.738;2023-08-06T08:47:21;99113.03;;;38.20;43.21
9415;BME280;4746;35.664;139.738;2023-08-06T08:49:53;99110.66;;;38.67;43.05
9415;BME280;4746;35.664;139.738;2023-08-06T08:52:25;99115.34;;;38.86;42.57
9415;BME280;4746;35.664;139.738;2023-08-06T08:54:55;99104.81;;;38.84;42.61
9415;BME280;4746;35.664;139.738;2023-08-06T08:57:25;99106.34;;;38.93;42.97
9415;BME280;4746;35.664;139.738;2023-08-06T08:59:52;99106.66;;;38.84;42.85
9415;BME280;4746;35.664;139.738;2023-08-06T09:02:38;99119.94;;;38.50;43.70
9415;BME280;4746;35.664;139.738;2023-08-06T09:05:07;99136.13;;;38.42;43.87
9415;BME280;4746;35.664;139.738;2023-08-06T09:07:49;99140.81;;;38.75;43.00
9415;BME280;4746;35.664;139.738;2023-08-06T09:10:20;99148.38;;;38.93;43.48
9415;BME280;4746;35.664;139.738;2023-08-06T09:12:52;99146.91;;;38.63;44.09
9415;BME280;4746;35.664;139.738;2023-08-06T09:15:24;99152.25;;;38.13;44.18
9415;BME280;4746;35.664;139.738;2023-08-06T09:17:55;99160.22;;;37.63;45.20
9415;BME280;4746;35.664;139.738;2023-08-06T09:20:23;99163.41;;;37.16;46.28
9415;BME280;4746;35.664;139.738;2023-08-06T09:22:53;99153.91;;;36.69;46.81
9415;BME280;4746;35.664;139.738;2023-08-06T09:25:25;99159.69;;;36.27;47.88
9415;BME280;4746;35.664;139.738;2023-08-06T09:27:53;99153.88;;;35.86;49.37
9415;BME280;4746;35.664;139.738;2023-08-06T09:30:36;99162.34;;;35.59;49.64
9415;BME280;4746;35.664;139.738;2023-08-06T09:33:19;99176.03;;;35.32;50.58
9415;BME280;4746;35.664;139.738;2023-08-06T09:35:47;99164.41;;;35.09;51.56
9415;BME280;4746;35.664;139.738;2023-08-06T09:38:15;99165.56;;;34.91;52.06
9415;BME280;4746;35.664;139.738;2023-08-06T09:40:42;99152.56;;;34.72;52.30
9415;BME280;4746;35.664;139.738;2023-08-06T09:43:12;99151.91;;;34.54;53.35
9415;BME280;4746;35.664;139.738;2023-08-06T09:45:43;99153.00;;;34.36;53.45
9415;BME280;4746;35.664;139.738;2023-08-06T09:48:11;99163.59;;;34.20;54.11
9415;BME280;4746;35.664;139.738;2023-08-06T09:50:40;99173.22;;;34.13;54.74
9415;BME280;4746;35.664;139.738;2023-08-06T09:53:09;99164.38;;;34.04;55.55
9415;BME280;4746;35.664;139.738;2023-08-06T09:55:38;99161.50;;;33.98;55.41
9415;BME280;4746;35.664;139.738;2023-08-06T09:58:07;99166.66;;;33.91;55.56
9415;BME280;4746;35.664;139.738;2023-08-06T10:00:36;99176.25;;;33.85;56.54
9415;BME280;4746;35.664;139.738;2023-08-06T10:03:09;99170.78;;;33.86;56.49
9415;BME280;4746;35.664;139.738;2023-08-06T10:05:38;99174.41;;;33.85;56.21
9415;BME280;4746;35.664;139.738;2023-08-06T10:08:07;99175.59;;;33.83;56.89
9415;BME280;4746;35.664;139.738;2023-08-06T10:10:35;99175.41;;;33.76;56.85
9415;BME280;4746;35.664;139.738;2023-08-06T10:13:06;99177.72;;;33.71;56.91
9415;BME280;4746;35.664;139.738;2023-08-06T10:15:37;99182.34;;;33.69;57.22
9415;BME280;4746;35.664;139.738;2023-08-06T10:18:07;99188.97;;;33.65;57.73
9415;BME280;4746;35.664;139.738;2023-08-06T10:20:35;99199.09;;;33.62;57.05
9415;BME280;4746;35.664;139.738;2023-08-06T10:23:05;99207.53;;;33.57;57.47
9415;BME280;4746;35.664;139.738;2023-08-06T10:25:42;99208.56;;;33.64;57.36
9415;BME280;4746;35.664;139.738;2023-08-06T10:28:11;99213.88;;;33.64;57.29
9415;BME280;4746;35.664;139.738;2023-08-06T10:30:46;99220.88;;;33.65;56.50
9415;BME280;4746;35.664;139.738;2023-08-06T10:33:14;99226.28;;;33.56;56.63
9415;BME280;4746;35.664;139.738;2023-08-06T10:35:46;99228.69;;;33.49;56.32
9415;BME280;4746;35.664;139.738;2023-08-06T10:38:22;99227.00;;;33.40;56.12
9415;BME280;4746;35.664;139.738;2023-08-06T10:43:35;99233.72;;;33.27;57.15
9415;BME280;4746;35.664;139.738;2023-08-06T10:46:11;99242.50;;;33.27;56.82
9415;BME280;4746;35.664;139.738;2023-08-06T10:48:41;99235.84;;;33.23;57.20
9415;BME280;4746;35.664;139.738;2023-08-06T10:51:12;99236.81;;;33.22;57.00
9415;BME280;4746;35.664;139.738;2023-08-06T10:53:46;99240.97;;;33.25;57.29
9415;BME280;4746;35.664;139.738;2023-08-06T10:56:23;99240.81;;;33.26;57.31
9415;BME280;4746;35.664;139.738;2023-08-06T10:58:57;99246.47;;;33.23;57.16
9415;BME280;4746;35.664;139.738;2023-08-06T11:01:28;99251.09;;;33.21;57.50
9415;BME280;4746;35.664;139.738;2023-08-06T11:04:03;99254.06;;;33.18;57.45
9415;BME280;4746;35.664;139.738;2023-08-06T11:06:32;99266.66;;;33.17;58.42
9415;BME280;4746;35.664;139.738;2023-08-06T11:09:01;99258.53;;;33.18;58.38
9415;BME280;4746;35.664;139.738;2023-08-06T11:11:29;99276.28;;;33.17;58.22
9415;BME280;4746;35.664;139.738;2023-08-06T11:13:57;99268.63;;;33.15;58.36
9415;BME280;4746;35.664;139.738;2023-08-06T11:16:25;99281.25;;;33.13;58.48
9415;BME280;4746;35.664;139.738;2023-08-06T11:18:53;99280.22;;;33.14;58.85
9415;BME280;4746;35.664;139.738;2023-08-06T11:21:22;99279.94;;;33.17;59.33
9415;BME280;4746;35.664;139.738;2023-08-06T11:23:52;99277.97;;;33.18;58.64
9415;BME280;4746;35.664;139.738;2023-08-06T11:26:21;99278.78;;;33.19;59.06
9415;BME280;4746;35.664;139.738;2023-08-06T11:28:50;99278.78;;;33.19;59.16
9415;BME280;4746;35.664;139.738;2023-08-06T11:31:22;99284.25;;;33.17;58.96
9415;BME280;4746;35.664;139.738;2023-08-06T11:33:56;99277.81;;;33.20;59.10
9415;BME280;4746;35.664;139.738;2023-08-06T11:36:40;99284.78;;;33.21;58.85
9415;BME280;4746;35.664;139.738;2023-08-06T11:39:10;99286.22;;;33.16;59.42
9415;BME280;4746;35.664;139.738;2023-08-06T11:41:38;99287.41;;;33.04;60.02
9415;BME280;4746;35.664;139.738;2023-08-06T11:44:06;99291.53;;;32.98;60.14
9415;BME280;4746;35.664;139.738;2023-08-06T11:46:57;99295.53;;;33.02;59.47
9415;BME280;4746;35.664;139.738;2023-08-06T11:49:47;99297.66;;;32.99;60.04
9415;BME280;4746;35.664;139.738;2023-08-06T11:52:18;99307.22;;;32.92;60.38
9415;BME280;4746;35.664;139.738;2023-08-06T11:57:33;99315.06;;;33.11;59.42
9415;BME280;4746;35.664;139.738;2023-08-06T12:00:14;99310.75;;;33.10;59.88
9415;BME280;4746;35.664;139.738;2023-08-06T12:02:47;99314.38;;;33.09;59.86
9415;BME280;4746;35.664;139.738;2023-08-06T12:05:18;99303.91;;;33.07;59.95
9415;BME280;4746;35.664;139.738;2023-08-06T12:07:50;99303.09;;;33.07;60.12
9415;BME280;4746;35.664;139.738;2023-08-06T12:10:19;99320.22;;;32.95;60.64
9415;BME280;4746;35.664;139.738;2023-08-06T12:12:47;99317.94;;;33.00;60.20
9415;BME280;4746;35.664;139.738;2023-08-06T12:15:16;99321.00;;;33.05;59.84
9415;BME280;4746;35.664;139.738;2023-08-06T12:17:46;99309.81;;;33.01;60.27
9415;BME280;4746;35.664;139.738;2023-08-06T12:20:16;99317.06;;;32.99;59.85
9415;BME280;4746;35.664;139.738;2023-08-06T12:22:43;99300.09;;;32.92;59.89
9415;BME280;4746;35.664;139.738;2023-08-06T12:25:13;99313.75;;;32.97;59.93
9415;BME280;4746;35.664;139.738;2023-08-06T12:27:45;99312.78;;;32.98;59.98
9415;BME280;4746;35.664;139.738;2023-08-06T12:30:14;99321.28;;;33.02;59.77
9415;BME280;4746;35.664;139.738;2023-08-06T12:32:41;99328.28;;;32.93;59.66
9415;BME280;4746;35.664;139.738;2023-08-06T12:35:09;99316.09;;;32.83;59.86
9415;BME280;4746;35.664;139.738;2023-08-06T12:37:37;99316.38;;;32.80;60.27
9415;BME280;4746;35.664;139.738;2023-08-06T12:40:11;99314.84;;;32.77;60.43
9415;BME280;4746;35.664;139.738;2023-08-06T12:42:38;99314.31;;;32.74;60.43
9415;BME280;4746;35.664;139.738;2023-08-06T12:45:06;99306.53;;;32.72;60.25
9415;BME280;4746;35.664;139.738;2023-08-06T12:47:37;99311.38;;;32.77;60.39
9415;BME280;4746;35.664;139.738;2023-08-06T12:50:08;99309.41;;;32.79;60.67
9415;BME280;4746;35.664;139.738;2023-08-06T12:52:36;99309.81;;;32.84;60.57
9415;BME280;4746;35.664;139.738;2023-08-06T12:55:04;99299.84;;;32.86;60.18
9415;BME280;4746;35.664;139.738;2023-08-06T12:57:31;99304.88;;;32.89;59.69
9415;BME280;4746;35.664;139.738;2023-08-06T13:00:01;99301.44;;;32.79;60.82
9415;BME280;4746;35.664;139.738;2023-08-06T13:02:28;99303.19;;;32.88;60.18
9415;BME280;4746;35.664;139.738;2023-08-06T13:04:56;99317.00;;;32.91;59.85
9415;BME280;4746;35.664;139.738;2023-08-06T13:07:24;99304.56;;;32.92;59.80
9415;BME280;4746;35.664;139.738;2023-08-06T13:09:53;99320.22;;;32.95;59.69
9415;BME280;4746;35.664;139.738;2023-08-06T13:12:21;99306.78;;;32.96;60.01
9415;BME280;4746;35.664;139.738;2023-08-06T13:14:50;99309.59;;;32.95;59.79
9415;BME280;4746;35.664;139.738;2023-08-06T13:17:19;99317.16;;;32.90;59.62
9415;BME280;4746;35.664;139.738;2023-08-06T13:19:47;99317.00;;;32.91;59.81